createdAt,value
2018-01-18T00:00:04.896Z,7.07
2018-01-18T00:00:45.429Z,7.15
2018-01-18T00:01:26.007Z,7.17
2018-01-18T00:02:06.570Z,7.24
2018-01-18T00:02:47.133Z,7.27
2018-01-18T00:03:27.731Z,7.34
2018-01-18T00:05:27.133Z,7.27
2018-01-18T00:06:07.432Z,7.35
2018-01-18T00:06:50.672Z,7.23
2018-01-18T00:07:31.192Z,7.32
2018-01-18T00:08:11.738Z,7.42
2018-01-18T00:08:52.350Z,7.35
2018-01-18T00:09:34.691Z,7.4
2018-01-18T00:10:16.249Z,7.34
2018-01-18T00:10:56.793Z,7.31
2018-01-18T00:11:37.475Z,7.31
2018-01-18T00:12:18.499Z,7.3
2018-01-18T00:13:00.105Z,7.28
2018-01-18T00:13:40.614Z,7.31
2018-01-18T00:14:21.248Z,7.25
2018-01-18T00:15:01.745Z,7.3
2018-01-18T00:15:42.309Z,7.28
2018-01-18T00:18:41.640Z,7.31
2018-01-18T00:19:22.289Z,7.37
2018-01-18T00:20:02.909Z,7.25
2018-01-18T00:20:50.199Z,7.27
2018-01-18T00:22:37.409Z,7.27
2018-01-18T00:23:16.924Z,7.15
2018-01-18T00:23:58.233Z,7.23
2018-01-18T00:24:41.066Z,7.12
2018-01-18T00:25:21.933Z,7.28
2018-01-18T00:26:02.341Z,7.27
2018-01-18T00:26:43.048Z,7.39
2018-01-18T00:27:25.131Z,7.28
2018-01-18T00:28:05.642Z,7.27
2018-01-18T00:28:46.222Z,7.25
2018-01-18T00:29:26.908Z,7.16
2018-01-18T00:30:07.657Z,7.3
2018-01-18T00:30:48.245Z,7.37
2018-01-18T00:31:28.892Z,7.42
2018-01-18T00:32:09.811Z,7.39
2018-01-18T00:32:50.556Z,7.46
2018-01-18T00:33:31.041Z,7.45
2018-01-18T00:34:12.072Z,7.52
2018-01-18T00:34:52.757Z,7.4
2018-01-18T00:35:33.628Z,7.55
2018-01-18T00:36:14.615Z,7.57
2018-01-18T00:36:55.154Z,7.64
2018-01-18T00:37:35.795Z,7.53
2018-01-18T00:38:16.590Z,7.52
2018-01-18T00:38:57.102Z,7.5
2018-01-18T00:39:37.669Z,7.34
2018-01-18T00:40:18.217Z,7.52
2018-01-18T00:40:58.898Z,7.68
2018-01-18T00:41:39.466Z,7.63
2018-01-18T00:42:20.052Z,7.83
2018-01-18T00:43:00.929Z,7.8
2018-01-18T00:43:41.455Z,7.9
2018-01-18T00:44:22.163Z,7.98
2018-01-18T00:45:02.697Z,8.07
2018-01-18T00:45:43.242Z,8.07
2018-01-18T00:46:23.826Z,8.08
2018-01-18T00:47:04.348Z,8.04
2018-01-18T00:47:45.183Z,8.01
2018-01-18T00:48:25.725Z,7.98
2018-01-18T00:49:06.338Z,8.01
2018-01-18T00:49:46.715Z,8.1
2018-01-18T00:50:27.244Z,8.04
2018-01-18T00:51:07.967Z,8.07
2018-01-18T00:51:48.520Z,8.1
2018-01-18T00:52:29.151Z,8.1
2018-01-18T00:53:10.012Z,7.97
2018-01-18T00:53:50.575Z,8.01
2018-01-18T00:54:31.090Z,7.9
2018-01-18T00:55:11.677Z,7.89
2018-01-18T00:55:52.279Z,7.89
2018-01-18T00:56:32.948Z,7.92
2018-01-18T00:57:13.528Z,7.9
2018-01-18T00:57:54.528Z,7.9
2018-01-18T00:58:35.345Z,7.95
2018-01-18T00:59:16.340Z,7.89
2018-01-18T00:59:57.008Z,7.86
2018-01-18T01:00:38.463Z,7.86
2018-01-18T01:01:19.446Z,7.85
2018-01-18T01:02:00.933Z,7.79
2018-01-18T01:02:41.655Z,7.63
2018-01-18T01:03:22.160Z,7.68
2018-01-18T01:04:04.303Z,7.61
2018-01-18T01:04:47.105Z,7.53
2018-01-18T01:05:29.706Z,7.61
2018-01-18T01:06:10.808Z,7.57
2018-01-18T01:06:51.109Z,7.55
2018-01-18T01:07:32.684Z,7.68
2018-01-18T01:08:14.323Z,7.64
2018-01-18T01:08:56.233Z,7.68
2018-01-18T01:09:37.971Z,7.53
2018-01-18T01:10:19.107Z,7.39
2018-01-18T01:11:00.497Z,7.4
2018-01-18T01:11:41.363Z,7.48
2018-01-18T01:12:23.254Z,7.45
2018-01-18T01:13:06.172Z,7.6
2018-01-18T01:13:47.270Z,7.55
2018-01-18T01:14:29.308Z,7.52
2018-01-18T01:15:10.643Z,7.55
2018-01-18T01:15:51.315Z,7.69
2018-01-18T01:16:33.235Z,7.5
2018-01-18T01:17:14.704Z,7.6
2018-01-18T01:17:55.532Z,7.68
2018-01-18T01:18:36.360Z,7.64
2018-01-18T01:19:17.555Z,7.77
2018-01-18T01:19:59.577Z,7.72
2018-01-18T01:20:40.460Z,7.68
2018-01-18T01:21:21.921Z,7.68
2018-01-18T01:22:03.036Z,7.55
2018-01-18T01:22:43.867Z,7.48
2018-01-18T01:23:26.012Z,7.49
2018-01-18T01:24:08.606Z,7.45
2018-01-18T01:24:50.886Z,7.5
2018-01-18T01:25:31.696Z,7.48
2018-01-18T01:26:12.284Z,7.53
2018-01-18T01:26:53.452Z,7.58
2018-01-18T01:27:35.134Z,7.5
2018-01-18T01:28:15.839Z,7.53
2018-01-18T01:28:56.421Z,7.53
2018-01-18T01:29:37.130Z,7.5
2018-01-18T01:30:18.466Z,7.5
2018-01-18T01:30:59.133Z,7.55
2018-01-18T01:31:39.821Z,7.53
2018-01-18T01:32:20.426Z,7.34
2018-01-18T01:33:00.992Z,7.3
2018-01-18T01:33:41.743Z,7.34
2018-01-18T01:34:23.115Z,7.37
2018-01-18T01:35:03.761Z,7.42
2018-01-18T01:35:44.531Z,7.42
2018-01-18T01:36:26.217Z,7.37
2018-01-18T01:37:06.751Z,7.37
2018-01-18T01:37:47.332Z,7.31
2018-01-18T01:38:31.905Z,7.35
2018-01-18T01:39:31.780Z,7.34
2018-01-18T01:40:13.790Z,7.3
2018-01-18T01:40:54.313Z,7.37
2018-01-18T01:41:37.178Z,7.3
2018-01-18T01:42:17.798Z,7.32
2018-01-18T01:42:58.305Z,7.28
2018-01-18T01:43:38.823Z,7.24
2018-01-18T01:44:19.357Z,7.2
2018-01-18T01:45:00.952Z,7.2
2018-01-18T01:45:42.353Z,7.28
2018-01-18T01:46:22.828Z,7.35
2018-01-18T01:47:03.405Z,7.3
2018-01-18T01:47:43.912Z,7.34
2018-01-18T01:48:24.467Z,7.34
2018-01-18T01:49:07.248Z,7.32
2018-01-18T01:49:48.292Z,7.34
2018-01-18T01:50:28.828Z,7.4
2018-01-18T01:51:09.377Z,7.32
2018-01-18T01:51:51.738Z,7.37
2018-01-18T01:52:33.057Z,7.46
2018-01-18T01:53:13.562Z,7.42
2018-01-18T01:53:54.111Z,7.43
2018-01-18T01:54:34.719Z,7.49
2018-01-18T01:56:34.556Z,7.37
2018-01-18T01:57:13.124Z,7.48
2018-01-18T01:57:53.787Z,7.46
2018-01-18T01:58:34.339Z,7.48
2018-01-18T02:00:55.066Z,7.45
2018-01-18T02:01:37.720Z,7.43
2018-01-18T02:02:18.236Z,7.43
2018-01-18T02:02:58.734Z,7.42
2018-01-18T02:03:39.285Z,7.42
2018-01-18T02:04:21.972Z,7.34
2018-01-18T02:06:12.008Z,7.31
2018-01-18T02:06:52.526Z,7.37
2018-01-18T02:07:33.398Z,7.4
2018-01-18T02:08:13.905Z,7.45
2018-01-18T02:08:54.473Z,7.45
2018-01-18T02:09:34.952Z,7.4
2018-01-18T02:10:15.475Z,7.32
2018-01-18T02:10:56.106Z,7.27
2018-01-18T02:11:36.596Z,7.43
2018-01-18T02:12:17.154Z,7.4
2018-01-18T02:12:57.702Z,7.42
2018-01-18T02:13:38.262Z,7.4
2018-01-18T02:14:18.736Z,7.45
2018-01-18T02:14:59.280Z,7.43
2018-01-18T02:15:39.765Z,7.52
2018-01-18T02:16:20.389Z,7.53
2018-01-18T02:17:00.829Z,7.48
2018-01-18T02:17:41.375Z,7.57
2018-01-18T02:18:21.882Z,7.52
2018-01-18T02:19:02.434Z,7.53
2018-01-18T02:19:42.929Z,7.48
2018-01-18T02:20:23.481Z,7.46
2018-01-18T02:21:04.016Z,7.42
2018-01-18T02:21:44.580Z,7.4
2018-01-18T02:22:25.143Z,7.42
2018-01-18T02:23:05.776Z,7.45
2018-01-18T02:23:46.281Z,7.52
2018-01-18T02:24:26.813Z,7.53
2018-01-18T02:25:07.336Z,7.58
2018-01-18T02:25:47.860Z,7.68
2018-01-18T02:26:28.416Z,7.63
2018-01-18T02:27:08.934Z,7.63
2018-01-18T02:27:49.799Z,7.6
2018-01-18T02:28:30.216Z,7.69
2018-01-18T02:29:10.744Z,7.64
2018-01-18T02:29:51.323Z,7.5
2018-01-18T02:30:31.843Z,7.52
2018-01-18T02:31:12.380Z,7.63
2018-01-18T02:31:52.958Z,7.61
2018-01-18T02:32:33.438Z,7.68
2018-01-18T02:33:14.017Z,7.77
2018-01-18T02:33:54.524Z,7.68
2018-01-18T02:34:35.074Z,7.64
2018-01-18T02:35:15.667Z,7.72
2018-01-18T02:35:56.136Z,7.64
2018-01-18T02:36:36.720Z,7.64
2018-01-18T02:37:17.227Z,7.69
2018-01-18T02:37:57.702Z,7.72
2018-01-18T02:38:38.237Z,7.67
2018-01-18T02:39:18.738Z,7.68
2018-01-18T02:39:59.294Z,7.75
2018-01-18T02:40:39.910Z,7.67
2018-01-18T02:41:20.424Z,7.64
2018-01-18T02:42:00.898Z,7.64
2018-01-18T02:42:41.485Z,7.53
2018-01-18T02:43:21.999Z,7.63
2018-01-18T02:44:02.529Z,7.68
2018-01-18T02:44:43.050Z,7.55
2018-01-18T02:45:23.570Z,7.58
2018-01-18T02:46:04.093Z,7.53
2018-01-18T02:46:44.675Z,7.48
2018-01-18T02:47:25.190Z,7.52
2018-01-18T02:48:05.698Z,7.52
2018-01-18T02:48:46.287Z,7.49
2018-01-18T02:49:26.805Z,7.55
2018-01-18T02:50:07.333Z,7.48
2018-01-18T02:50:47.888Z,7.5
2018-01-18T02:51:28.431Z,7.61
2018-01-18T02:52:08.947Z,7.64
2018-01-18T02:52:49.434Z,7.55
2018-01-18T02:53:29.984Z,7.52
2018-01-18T02:54:10.502Z,7.53
2018-01-18T02:54:51.054Z,7.5
2018-01-18T02:55:31.529Z,7.48
2018-01-18T02:56:12.078Z,7.6
2018-01-18T02:56:52.650Z,7.5
2018-01-18T02:57:33.124Z,7.55
2018-01-18T02:58:13.661Z,7.57
2018-01-18T02:58:54.209Z,7.61
2018-01-18T02:59:34.792Z,7.52
2018-01-18T03:00:15.347Z,7.5
2018-01-18T03:00:55.846Z,7.61
2018-01-18T03:01:36.423Z,7.52
2018-01-18T03:02:16.936Z,7.52
2018-01-18T03:02:57.433Z,7.68
2018-01-18T03:03:37.982Z,7.57
2018-01-18T03:04:18.514Z,7.5
2018-01-18T03:04:58.997Z,7.58
2018-01-18T03:05:39.551Z,7.67
2018-01-18T03:06:20.058Z,7.63
2018-01-18T03:07:00.581Z,7.67
2018-01-18T03:07:41.085Z,7.63
2018-01-18T03:08:21.622Z,7.52
2018-01-18T03:09:02.119Z,7.68
2018-01-18T03:09:42.639Z,7.57
2018-01-18T03:10:23.155Z,7.64
2018-01-18T03:11:03.732Z,7.63
2018-01-18T03:11:44.235Z,7.57
2018-01-18T03:12:24.776Z,7.53
2018-01-18T03:13:05.379Z,7.58
2018-01-18T03:13:45.863Z,7.53
2018-01-18T03:14:26.399Z,7.55
2018-01-18T03:15:06.956Z,7.57
2018-01-18T03:15:47.478Z,7.57
2018-01-18T03:16:28.003Z,7.48
2018-01-18T03:17:08.532Z,7.53
2018-01-18T03:17:49.071Z,7.52
2018-01-18T03:18:29.587Z,7.43
2018-01-18T03:19:10.122Z,7.43
2018-01-18T03:19:50.679Z,7.48
2018-01-18T03:20:31.152Z,7.4
2018-01-18T03:21:11.746Z,7.5
2018-01-18T03:21:52.325Z,7.52
2018-01-18T03:22:32.813Z,7.61
2018-01-18T03:23:13.448Z,7.5
2018-01-18T03:23:54.130Z,7.52
2018-01-18T03:24:34.494Z,7.49
2018-01-18T03:25:14.990Z,7.4
2018-01-18T03:25:55.535Z,7.42
2018-01-18T03:26:36.049Z,7.52
2018-01-18T03:27:16.587Z,7.48
2018-01-18T03:27:57.114Z,7.55
2018-01-18T03:28:37.661Z,7.53
2018-01-18T03:29:18.208Z,7.46
2018-01-18T03:29:58.751Z,7.5
2018-01-18T03:30:39.306Z,7.46
2018-01-18T03:31:19.853Z,7.42
2018-01-18T03:32:00.327Z,7.43
2018-01-18T03:32:40.885Z,7.43
2018-01-18T03:33:21.443Z,7.42
2018-01-18T03:34:01.934Z,7.46
2018-01-18T03:34:42.775Z,7.46
2018-01-18T03:35:23.277Z,7.42
2018-01-18T03:36:03.782Z,7.35
2018-01-18T03:36:44.318Z,7.48
2018-01-18T03:37:24.853Z,7.46
2018-01-18T03:38:05.401Z,7.45
2018-01-18T03:38:45.990Z,7.43
2018-01-18T03:39:26.488Z,7.45
2018-01-18T03:40:06.968Z,7.42
2018-01-18T03:40:47.515Z,7.32
2018-01-18T03:41:28.022Z,7.45
2018-01-18T03:42:08.553Z,7.34
2018-01-18T03:42:49.048Z,7.3
2018-01-18T03:43:29.555Z,7.34
2018-01-18T03:44:10.105Z,7.45
2018-01-18T03:44:50.668Z,7.4
2018-01-18T03:45:31.180Z,7.49
2018-01-18T03:46:11.679Z,7.42
2018-01-18T03:46:52.239Z,7.43
2018-01-18T03:47:32.797Z,7.39
2018-01-18T03:48:13.510Z,7.4
2018-01-18T03:48:54.093Z,7.42
2018-01-18T03:49:34.568Z,7.42
2018-01-18T03:50:15.150Z,7.45
2018-01-18T03:50:55.644Z,7.3
2018-01-18T03:51:36.155Z,7.39
2018-01-18T03:52:16.769Z,7.46
2018-01-18T03:52:57.267Z,7.32
2018-01-18T03:53:37.721Z,7.28
2018-01-18T03:54:18.268Z,7.32
2018-01-18T03:54:58.830Z,7.24
2018-01-18T03:55:39.375Z,7.16
2018-01-18T03:56:20.175Z,7.13
2018-01-18T03:57:00.784Z,7.24
2018-01-18T03:57:41.324Z,7.28
2018-01-18T03:58:21.840Z,7.25
2018-01-18T03:59:02.331Z,7.37
2018-01-18T03:59:42.853Z,7.37
2018-01-18T04:00:23.379Z,7.24
2018-01-18T04:01:03.873Z,7.21
2018-01-18T04:01:44.415Z,7.21
2018-01-18T04:02:24.920Z,7.05
2018-01-18T04:03:05.478Z,7.03
2018-01-18T04:03:46.036Z,6.97
2018-01-18T04:04:26.584Z,6.95
2018-01-18T04:05:07.137Z,6.99
2018-01-18T04:05:47.648Z,7.2
2018-01-18T04:06:29.092Z,7.09
2018-01-18T04:07:09.618Z,7.09
2018-01-18T04:07:50.209Z,7.17
2018-01-18T04:08:30.689Z,7.21
2018-01-18T04:09:11.209Z,7.1
2018-01-18T04:09:51.736Z,7.12
2018-01-18T04:10:32.288Z,7.07
2018-01-18T04:11:12.826Z,7.02
2018-01-18T04:11:53.347Z,7.12
2018-01-18T04:12:33.861Z,7.21
2018-01-18T04:13:14.942Z,7.13
2018-01-18T04:13:55.534Z,7.09
2018-01-18T04:14:36.164Z,7.09
2018-01-18T04:15:16.700Z,7.21
2018-01-18T04:15:57.340Z,7.28
2018-01-18T04:16:37.840Z,7.31
2018-01-18T04:17:18.382Z,7.24
2018-01-18T04:17:58.937Z,7.15
2018-01-18T04:18:39.477Z,7.12
2018-01-18T04:19:20.024Z,7.17
2018-01-18T04:20:00.547Z,7.2
2018-01-18T04:20:41.165Z,7.17
2018-01-18T04:21:21.645Z,7.21
2018-01-18T04:22:02.689Z,7.13
2018-01-18T04:22:43.224Z,7.13
2018-01-18T04:23:23.773Z,7.16
2018-01-18T04:24:04.329Z,7.13
2018-01-18T04:24:44.865Z,6.98
2018-01-18T04:25:25.444Z,7.06
2018-01-18T04:26:05.964Z,7.06
2018-01-18T04:26:46.503Z,7.13
2018-01-18T04:27:27.104Z,7.09
2018-01-18T04:28:07.753Z,7.09
2018-01-18T04:28:48.468Z,7.07
2018-01-18T04:29:29.029Z,7.06
2018-01-18T04:30:09.521Z,7.1
2018-01-18T04:31:58.128Z,7.12
2018-01-18T04:32:38.512Z,7.12
2018-01-18T04:33:19.009Z,7.02
2018-01-18T04:33:59.536Z,6.91
2018-01-18T04:34:40.121Z,6.79
2018-01-18T04:35:22.490Z,6.84
2018-01-18T04:36:03.472Z,6.88
2018-01-18T04:36:44.026Z,6.77
2018-01-18T04:37:24.591Z,6.88
2018-01-18T04:38:05.112Z,7.06
2018-01-18T04:38:47.713Z,7.13
2018-01-18T04:39:28.566Z,7.09
2018-01-18T04:40:09.036Z,7.06
2018-01-18T04:40:49.535Z,7.12
2018-01-18T04:41:30.073Z,6.99
2018-01-18T04:42:12.296Z,6.94
2018-01-18T04:42:53.266Z,7.02
2018-01-18T04:43:33.784Z,6.92
2018-01-18T04:44:14.356Z,6.89
2018-01-18T04:44:54.904Z,6.87
2018-01-18T04:45:35.441Z,6.84
2018-01-18T04:46:18.701Z,7.06
2018-01-18T04:46:59.252Z,6.99
2018-01-18T04:47:39.789Z,7.09
2018-01-18T04:48:20.322Z,7.06
2018-01-18T04:49:03.769Z,6.84
2018-01-18T04:49:44.297Z,6.81
2018-01-18T04:50:24.856Z,6.85
2018-01-18T04:51:05.395Z,6.92
2018-01-18T04:51:48.705Z,6.84
2018-01-18T04:52:29.230Z,6.84
2018-01-18T04:53:09.730Z,6.88
2018-01-18T04:53:50.285Z,6.8
2018-01-18T04:54:30.839Z,6.84
2018-01-18T04:55:12.054Z,6.85
2018-01-18T04:55:52.559Z,6.84
2018-01-18T04:56:33.094Z,6.8
2018-01-18T04:57:13.625Z,6.8
2018-01-18T04:57:54.173Z,6.81
2018-01-18T04:58:34.696Z,6.8
2018-01-18T04:59:15.179Z,6.92
2018-01-18T04:59:55.715Z,6.89
2018-01-18T05:00:36.266Z,6.8
2018-01-18T05:01:16.830Z,6.91
2018-01-18T05:01:57.315Z,6.91
2018-01-18T05:02:37.912Z,6.84
2018-01-18T05:03:18.404Z,6.8
2018-01-18T05:03:58.925Z,6.92
2018-01-18T05:04:39.474Z,7.09
2018-01-18T05:05:19.961Z,7.12
2018-01-18T05:06:00.497Z,7.1
2018-01-18T05:06:41.029Z,7.09
2018-01-18T05:07:21.542Z,7.09
2018-01-18T05:08:02.074Z,7.1
2018-01-18T05:08:42.560Z,6.98
2018-01-18T05:09:23.107Z,7.03
2018-01-18T05:10:03.626Z,7.09
2018-01-18T05:10:44.144Z,7.09
2018-01-18T05:11:24.644Z,7.02
2018-01-18T05:12:05.177Z,6.99
2018-01-18T05:12:45.702Z,6.95
2018-01-18T05:13:26.226Z,6.99
2018-01-18T05:14:06.771Z,6.79
2018-01-18T05:14:47.291Z,6.98
2018-01-18T05:15:27.820Z,7.09
2018-01-18T05:16:08.377Z,6.99
2018-01-18T05:16:48.906Z,6.98
2018-01-18T05:17:29.441Z,7.03
2018-01-18T05:18:10.000Z,7.06
2018-01-18T05:18:50.517Z,6.81
2018-01-18T05:19:31.043Z,6.92
2018-01-18T05:20:11.555Z,6.81
2018-01-18T05:20:52.087Z,6.77
2018-01-18T05:21:32.627Z,6.79
2018-01-18T05:22:13.159Z,6.7
2018-01-18T05:22:53.650Z,6.77
2018-01-18T05:23:34.176Z,6.76
2018-01-18T05:24:14.713Z,6.81
2018-01-18T05:24:55.276Z,6.69
2018-01-18T05:25:35.836Z,6.71
2018-01-18T05:26:16.381Z,6.71
2018-01-18T05:26:56.909Z,6.87
2018-01-18T05:27:37.408Z,6.87
2018-01-18T05:28:17.965Z,6.81
2018-01-18T05:28:58.502Z,6.74
2018-01-18T05:29:39.024Z,6.76
2018-01-18T05:30:19.537Z,6.87
2018-01-18T05:31:00.115Z,6.84
2018-01-18T05:31:40.627Z,6.8
2018-01-18T05:32:21.158Z,6.77
2018-01-18T05:33:01.676Z,6.74
2018-01-18T05:33:42.212Z,6.79
2018-01-18T05:34:22.723Z,6.71
2018-01-18T05:35:03.297Z,6.74
2018-01-18T05:35:43.814Z,6.84
2018-01-18T05:36:24.397Z,6.84
2018-01-18T05:37:04.889Z,6.81
2018-01-18T05:37:45.427Z,6.88
2018-01-18T05:38:25.943Z,6.92
2018-01-18T05:39:06.434Z,6.98
2018-01-18T05:39:47.009Z,6.79
2018-01-18T05:40:27.535Z,6.79
2018-01-18T05:41:08.068Z,6.79
2018-01-18T05:41:48.562Z,6.84
2018-01-18T05:42:29.083Z,6.79
2018-01-18T05:43:09.657Z,6.81
2018-01-18T05:43:50.174Z,6.8
2018-01-18T05:44:30.704Z,6.8
2018-01-18T05:45:11.217Z,6.85
2018-01-18T05:45:51.805Z,6.89
2018-01-18T05:46:32.449Z,6.81
2018-01-18T05:47:18.209Z,6.79
2018-01-18T05:48:01.594Z,6.8
2018-01-18T05:48:42.237Z,6.77
2018-01-18T05:49:22.854Z,6.77
2018-01-18T05:50:03.400Z,6.76
2018-01-18T05:50:43.908Z,6.73
2018-01-18T05:51:25.171Z,6.84
2018-01-18T05:52:05.658Z,6.8
2018-01-18T05:52:46.420Z,6.87
2018-01-18T05:53:26.723Z,6.94
2018-01-18T05:54:07.315Z,6.87
2018-01-18T05:54:48.141Z,6.87
2018-01-18T05:55:28.655Z,6.85
2018-01-18T05:56:09.244Z,6.91
2018-01-18T05:56:49.786Z,6.92
2018-01-18T05:57:30.287Z,6.98
2018-01-18T05:58:10.834Z,6.95
2018-01-18T05:58:51.591Z,6.88
2018-01-18T05:59:32.076Z,6.88
2018-01-18T06:00:12.936Z,6.81
2018-01-18T06:00:54.903Z,6.81
2018-01-18T06:01:34.395Z,6.74
2018-01-18T06:02:14.899Z,6.85
2018-01-18T06:02:55.467Z,6.8
2018-01-18T06:03:35.912Z,6.81
2018-01-18T06:04:16.513Z,6.88
2018-01-18T06:04:57.041Z,6.85
2018-01-18T06:05:37.554Z,6.87
2018-01-18T06:06:18.086Z,6.77
2018-01-18T06:06:58.602Z,6.89
2018-01-18T06:07:39.104Z,6.94
2018-01-18T06:08:19.679Z,7.02
2018-01-18T06:09:00.224Z,6.84
2018-01-18T06:09:40.778Z,6.92
2018-01-18T06:10:21.277Z,6.92
2018-01-18T06:11:01.891Z,6.97
2018-01-18T06:11:43.304Z,6.92
2018-01-18T06:12:23.864Z,7.09
2018-01-18T06:13:04.394Z,7.06
2018-01-18T06:13:45.022Z,7.09
2018-01-18T06:14:25.493Z,7.12
2018-01-18T06:15:06.221Z,7.07
2018-01-18T06:15:46.714Z,7.1
2018-01-18T06:16:27.281Z,7.1
2018-01-18T06:17:07.783Z,6.89
2018-01-18T06:17:48.311Z,7.05
2018-01-18T06:18:28.808Z,6.85
2018-01-18T06:19:09.375Z,6.87
2018-01-18T06:19:50.011Z,6.92
2018-01-18T06:20:30.566Z,6.87
2018-01-18T06:21:11.104Z,7.06
2018-01-18T06:21:51.651Z,7.09
2018-01-18T06:22:32.163Z,6.99
2018-01-18T06:23:12.725Z,6.99
2018-01-18T06:23:53.217Z,6.92
2018-01-18T06:24:33.759Z,6.84
2018-01-18T06:25:14.328Z,6.8
2018-01-18T06:25:54.945Z,6.94
2018-01-18T06:26:35.512Z,6.88
2018-01-18T06:27:15.987Z,6.8
2018-01-18T06:27:56.503Z,6.85
2018-01-18T06:28:37.061Z,6.85
2018-01-18T06:29:17.618Z,6.73
2018-01-18T06:29:58.090Z,6.77
2018-01-18T06:30:38.671Z,6.94
2018-01-18T06:31:19.141Z,6.88
2018-01-18T06:31:59.706Z,6.97
2018-01-18T06:32:40.309Z,6.97
2018-01-18T06:33:20.831Z,6.91
2018-01-18T06:34:01.344Z,6.95
2018-01-18T06:34:41.840Z,6.88
2018-01-18T06:35:22.379Z,6.97
2018-01-18T06:36:03.000Z,6.79
2018-01-18T06:36:43.553Z,6.89
2018-01-18T06:37:24.193Z,6.89
2018-01-18T06:38:04.880Z,6.99
2018-01-18T06:38:45.632Z,6.98
2018-01-18T06:39:26.152Z,7.03
2018-01-18T06:40:06.707Z,6.97
2018-01-18T06:40:47.304Z,6.91
2018-01-18T06:41:27.725Z,6.88
2018-01-18T06:42:08.282Z,6.97
2018-01-18T06:42:48.786Z,6.87
2018-01-18T06:43:29.354Z,6.81
2018-01-18T06:44:09.949Z,6.84
2018-01-18T06:44:50.462Z,6.79
2018-01-18T06:45:31.018Z,6.76
2018-01-18T06:46:11.561Z,6.8
2018-01-18T06:46:52.099Z,6.84
2018-01-18T06:47:32.611Z,6.79
2018-01-18T06:48:13.211Z,6.71
2018-01-18T06:48:53.872Z,6.66
2018-01-18T06:49:34.412Z,6.67
2018-01-18T06:50:14.982Z,6.67
2018-01-18T06:50:55.535Z,6.76
2018-01-18T06:51:36.116Z,6.77
2018-01-18T06:52:16.570Z,6.81
2018-01-18T06:52:57.106Z,6.84
2018-01-18T06:53:37.695Z,6.8
2018-01-18T06:54:18.184Z,6.79
2018-01-18T06:54:58.737Z,6.91
2018-01-18T06:55:39.274Z,6.81
2018-01-18T06:56:20.052Z,6.79
2018-01-18T06:57:00.640Z,6.71
2018-01-18T06:57:41.140Z,6.85
2018-01-18T06:58:21.754Z,6.79
2018-01-18T06:59:02.294Z,6.76
2018-01-18T06:59:42.793Z,6.79
2018-01-18T07:00:23.416Z,6.76
2018-01-18T07:01:03.962Z,6.84
2018-01-18T07:01:44.463Z,6.8
2018-01-18T07:02:25.007Z,6.77
2018-01-18T07:03:05.521Z,6.92
2018-01-18T07:03:46.175Z,6.94
2018-01-18T07:04:26.739Z,6.88
2018-01-18T07:05:07.416Z,6.77
2018-01-18T07:05:47.843Z,6.81
2018-01-18T07:06:28.365Z,6.76
2018-01-18T07:07:08.928Z,6.73
2018-01-18T07:07:49.505Z,6.77
2018-01-18T07:08:30.043Z,6.81
2018-01-18T07:09:10.572Z,6.87
2018-01-18T07:09:51.198Z,6.87
2018-01-18T07:10:31.730Z,6.84
2018-01-18T07:11:12.475Z,6.85
2018-01-18T07:11:52.993Z,6.71
2018-01-18T07:12:33.527Z,6.81
2018-01-18T07:13:14.168Z,6.79
2018-01-18T07:13:54.651Z,6.99
2018-01-18T07:14:35.270Z,6.89
2018-01-18T07:15:15.755Z,6.8
2018-01-18T07:15:56.312Z,6.73
2018-01-18T07:16:36.801Z,6.76
2018-01-18T07:17:17.507Z,6.81
2018-01-18T07:17:58.006Z,6.85
2018-01-18T07:18:38.579Z,6.79
2018-01-18T07:19:19.106Z,6.89
2018-01-18T07:19:59.606Z,6.99
2018-01-18T07:20:40.263Z,6.85
2018-01-18T07:21:20.718Z,6.81
2018-01-18T07:22:01.179Z,6.88
2018-01-18T07:22:41.717Z,6.73
2018-01-18T07:23:22.277Z,6.87
2018-01-18T07:24:02.861Z,6.81
2018-01-18T07:24:43.335Z,6.74
2018-01-18T07:25:23.843Z,6.77
2018-01-18T07:26:04.446Z,6.69
2018-01-18T07:26:44.932Z,6.87
2018-01-18T07:27:25.469Z,6.87
2018-01-18T07:28:06.086Z,6.98
2018-01-18T07:28:46.581Z,7.05
2018-01-18T07:29:27.154Z,7.1
2018-01-18T07:30:07.814Z,7.16
2018-01-18T07:30:48.295Z,7.07
2018-01-18T07:31:28.828Z,7.05
2018-01-18T07:32:09.391Z,7.12
2018-01-18T07:32:49.876Z,7.05
2018-01-18T07:33:30.393Z,7.12
2018-01-18T07:34:10.976Z,7.05
2018-01-18T07:34:51.540Z,7.16
2018-01-18T07:35:32.133Z,7.1
2018-01-18T07:36:12.691Z,7.07
2018-01-18T07:36:53.244Z,7.1
2018-01-18T07:37:33.715Z,7.09
2018-01-18T07:38:14.323Z,7.12
2018-01-18T07:38:55.895Z,7.17
2018-01-18T07:39:36.604Z,7.2
2018-01-18T07:40:17.105Z,7.12
2018-01-18T07:40:57.719Z,7.17
2018-01-18T07:41:38.282Z,7.1
2018-01-18T07:42:18.809Z,7.12
2018-01-18T07:42:59.344Z,7.09
2018-01-18T07:43:39.925Z,7.1
2018-01-18T07:44:20.415Z,7.09
2018-01-18T07:45:00.889Z,7.15
2018-01-18T07:45:41.584Z,7.12
2018-01-18T07:46:22.132Z,7.12
2018-01-18T07:47:02.754Z,7.21
2018-01-18T07:47:43.416Z,7.06
2018-01-18T07:48:23.866Z,7.17
2018-01-18T07:49:04.450Z,7.17
2018-01-18T07:49:45.024Z,7.16
2018-01-18T07:50:25.540Z,7.2
2018-01-18T07:51:06.072Z,7.1
2018-01-18T07:51:46.620Z,7.06
2018-01-18T07:52:27.148Z,7.09
2018-01-18T07:53:07.738Z,7.2
2018-01-18T07:53:48.260Z,7.12
2018-01-18T07:54:28.879Z,7.09
2018-01-18T07:55:09.380Z,7.06
2018-01-18T07:55:49.910Z,7.09
2018-01-18T07:56:30.395Z,7.12
2018-01-18T07:57:11.142Z,7.09
2018-01-18T07:57:51.720Z,7.13
2018-01-18T07:58:32.243Z,7.21
2018-01-18T07:59:12.770Z,7.13
2018-01-18T07:59:53.306Z,7.25
2018-01-18T08:00:33.892Z,7.21
2018-01-18T08:01:14.636Z,7.21
2018-01-18T08:01:55.165Z,7.21
2018-01-18T08:02:35.694Z,7.28
2018-01-18T08:03:16.243Z,7.28
2018-01-18T08:03:56.818Z,7.3
2018-01-18T08:04:37.326Z,7.32
2018-01-18T08:05:17.869Z,7.31
2018-01-18T08:05:58.398Z,7.3
2018-01-18T08:06:38.886Z,7.27
2018-01-18T08:07:19.602Z,7.3
2018-01-18T08:08:00.069Z,7.25
2018-01-18T08:08:40.636Z,7.35
2018-01-18T08:09:21.168Z,7.34
2018-01-18T08:10:01.659Z,7.34
2018-01-18T08:10:42.202Z,7.45
2018-01-18T08:11:22.872Z,7.45
2018-01-18T08:12:03.406Z,7.4
2018-01-18T08:12:43.964Z,7.45
2018-01-18T08:13:24.506Z,7.48
2018-01-18T08:14:05.130Z,7.48
2018-01-18T08:14:45.660Z,7.39
2018-01-18T08:15:26.203Z,7.42
2018-01-18T08:16:06.752Z,7.45
2018-01-18T08:16:47.300Z,7.5
2018-01-18T08:17:27.790Z,7.4
2018-01-18T08:18:08.319Z,7.4
2018-01-18T08:18:48.904Z,7.43
2018-01-18T08:19:29.412Z,7.42
2018-01-18T08:20:09.932Z,7.39
2018-01-18T08:20:50.498Z,7.45
2018-01-18T08:21:31.012Z,7.46
2018-01-18T08:22:11.811Z,7.43
2018-01-18T08:22:52.336Z,7.53
2018-01-18T08:23:32.982Z,7.55
2018-01-18T08:24:13.454Z,7.55
2018-01-18T08:24:53.969Z,7.46
2018-01-18T08:25:34.611Z,7.45
2018-01-18T08:26:15.045Z,7.45
2018-01-18T08:26:55.603Z,7.49
2018-01-18T08:27:36.079Z,7.49
2018-01-18T08:28:16.633Z,7.61
2018-01-18T08:28:57.226Z,7.74
2018-01-18T08:29:37.747Z,7.69
2018-01-18T08:30:18.277Z,7.69
2018-01-18T08:30:58.885Z,7.6
2018-01-18T08:33:15.687Z,7.74
2018-01-18T08:34:05.100Z,7.69
2018-01-18T08:34:54.521Z,7.69
2018-01-18T08:35:42.865Z,7.71
2018-01-18T08:36:31.583Z,7.79
2018-01-18T08:37:23.454Z,7.75
2018-01-18T08:38:15.208Z,7.93
2018-01-18T08:39:04.924Z,7.79
2018-01-18T08:39:58.567Z,7.87
2018-01-18T08:43:48.249Z,7.92
2018-01-18T08:45:33.999Z,7.89
2018-01-18T08:46:23.836Z,7.98
2018-01-18T08:47:16.449Z,8.1
2018-01-18T08:48:04.450Z,8.1
2018-01-18T08:48:52.972Z,8.15
2018-01-18T08:49:42.353Z,8.1
2018-01-18T08:50:31.805Z,8.05
2018-01-18T08:51:20.743Z,8.1
2018-01-18T08:52:09.672Z,8.16
2018-01-18T08:52:58.258Z,8.26
2018-01-18T08:53:46.993Z,8.23
2018-01-18T08:54:35.773Z,8.22
2018-01-18T08:55:24.663Z,8.2
2018-01-18T08:56:13.251Z,8.19
2018-01-18T08:57:02.207Z,8.11
2018-01-18T08:57:51.582Z,8.2
2018-01-18T08:58:43.436Z,8.25
2018-01-18T08:59:32.741Z,8.34
2018-01-18T09:00:22.504Z,8.34
2018-01-18T09:01:11.371Z,8.26
2018-01-18T09:02:00.110Z,8.26
2018-01-18T09:02:49.125Z,8.38
2018-01-18T09:03:38.022Z,8.44
2018-01-18T09:04:27.500Z,8.37
2018-01-18T09:05:15.801Z,8.44
2018-01-18T09:06:04.691Z,8.47
2018-01-18T09:07:44.748Z,8.62
2018-01-18T09:08:34.130Z,8.58
2018-01-18T09:09:23.062Z,8.58
2018-01-18T09:10:11.621Z,8.52
2018-01-18T09:11:00.348Z,8.63
2018-01-18T09:11:49.101Z,8.7
2018-01-18T09:12:38.049Z,8.74
2018-01-18T09:13:26.718Z,8.89
2018-01-18T09:14:14.908Z,8.83
2018-01-18T09:15:04.243Z,8.79
2018-01-18T09:15:53.023Z,8.83
2018-01-18T09:16:41.822Z,8.83
2018-01-18T09:17:30.633Z,8.94
2018-01-18T09:18:19.549Z,8.87
2018-01-18T09:19:09.388Z,8.86
2018-01-18T09:19:58.266Z,8.94
2018-01-18T09:20:47.634Z,8.89
2018-01-18T09:22:38.943Z,8.98
2018-01-18T09:23:28.474Z,9.01
2018-01-18T09:24:17.037Z,9.04
2018-01-18T09:25:05.856Z,9.04
2018-01-18T09:25:54.452Z,9.04
2018-01-18T09:26:43.341Z,9.04
2018-01-18T09:27:31.033Z,9.05
2018-01-18T09:28:20.756Z,9.08
2018-01-18T09:29:09.839Z,9.05
2018-01-18T09:29:58.212Z,9.14